Terminal Aerodrome Forecast
Issued by NWS Sterling, VA

Home | Current Version | Previous Version | Text Only | Print | Product List | Glossary On
Versions: 1 2 3 4 5 6 7 8 9 10 11 12 13 14
783
FTUS41 KLWX 251140
TAFCHO
TAF
KCHO 251140Z 2512/2612 18007KT P6SM BKN060
     FM251500 19012G19KT P6SM BKN090
     FM251700 22015G23KT 5SM -SHRA VCTS OVC040CB
     FM252000 27016G28KT P6SM BKN060
     FM252300 28016G27KT P6SM SCT090
     FM260500 28009KT P6SM FEW045=

USA.gov is the U.S. government's official web portal to all federal, state and local government web resources and services.